Time;durP1;ratioP1;P1;durP2;ratioP2;P2;SDS_P1;SDS_P2;PMS_P1;PMS_P2;Temp;Humidity;BMP_temperature;BMP_pressure;BME280_temperature;BME280_humidity;BME280_pressure;Samples;Min_cycle;Max_cycle;Signal;HPM_P1;HPM_P2
2021/05/14 00:02:05;;;;;;;0.77;0.77;;;12.40;78.70;;;;;;5073110;28;20121;-79
2021/05/14 00:04:31;;;;;;;0.80;0.60;;;12.50;78.80;;;;;;5045475;28;20424;-80
2021/05/14 00:06:56;;;;;;;0.70;0.70;;;12.40;78.80;;;;;;5104974;28;20036;-80
2021/05/14 00:09:22;;;;;;;0.70;0.70;;;12.40;78.80;;;;;;5082776;28;20040;-79
2021/05/14 00:11:48;;;;;;;1.58;0.60;;;12.40;78.80;;;;;;5098874;28;20501;-79
2021/05/14 00:14:14;;;;;;;0.82;0.75;;;12.50;78.80;;;;;;5062587;28;20047;-79
2021/05/14 00:16:40;;;;;;;0.40;0.40;;;12.40;78.70;;;;;;5082723;28;20394;-79
2021/05/14 00:19:06;;;;;;;0.90;0.77;;;12.50;78.80;;;;;;5102910;28;20477;-80
2021/05/14 00:21:33;;;;;;;0.77;0.70;;;12.50;78.90;;;;;;5101403;28;20047;-79
2021/05/14 00:24:00;;;;;;;0.95;0.63;;;12.50;78.90;;;;;;5081357;28;20405;-79
2021/05/14 00:26:27;;;;;;;0.60;0.60;;;12.60;79.00;;;;;;5081968;28;20051;-79
2021/05/14 00:28:53;;;;;;;1.17;0.95;;;12.50;78.90;;;;;;5100633;28;20114;-80
2021/05/14 00:31:19;;;;;;;1.23;0.93;;;12.50;79.00;;;;;;5082304;28;20044;-79
2021/05/14 00:33:45;;;;;;;0.60;0.60;;;12.40;79.00;;;;;;5062824;28;20094;-79
2021/05/14 00:36:11;;;;;;;1.17;1.00;;;12.40;79.10;;;;;;5081803;28;20452;-80
2021/05/14 00:38:37;;;;;;;1.27;0.80;;;12.50;79.20;;;;;;5064147;28;20055;-79
2021/05/14 00:41:04;;;;;;;0.73;0.73;;;12.50;79.20;;;;;;5081317;28;20033;-80
2021/05/14 00:43:31;;;;;;;1.38;1.02;;;12.50;79.30;;;;;;5078781;28;20043;-79
2021/05/14 00:45:57;;;;;;;1.33;1.08;;;12.40;79.30;;;;;;5097901;28;20481;-79
2021/05/14 00:48:22;;;;;;;1.55;1.30;;;12.40;79.30;;;;;;5096176;28;20043;-79
2021/05/14 00:50:48;;;;;;;1.40;1.10;;;12.30;79.40;;;;;;5078216;28;20061;-79
2021/05/14 00:53:14;;;;;;;1.10;1.00;;;12.30;79.50;;;;;;5099029;28;20032;-79
2021/05/14 00:55:40;;;;;;;1.75;1.20;;;12.30;79.60;;;;;;5077459;28;20040;-79
2021/05/14 00:58:06;;;;;;;1.40;1.17;;;12.30;79.70;;;;;;5060143;28;20044;-79
2021/05/14 01:00:31;;;;;;;1.13;0.95;;;12.30;79.70;;;;;;5099868;28;20043;-79
2021/05/14 01:02:57;;;;;;;1.20;1.10;;;12.20;79.80;;;;;;5066665;28;20075;-79
2021/05/14 01:05:24;;;;;;;1.88;1.40;;;12.20;79.90;;;;;;5083704;28;20327;-79
2021/05/14 01:07:50;;;;;;;1.25;1.02;;;12.20;80.00;;;;;;5070071;28;20036;-79
2021/05/14 01:10:18;;;;;;;1.10;1.00;;;12.10;80.00;;;;;;5084002;28;20079;-79
2021/05/14 01:12:44;;;;;;;1.55;1.13;;;12.20;80.10;;;;;;5099768;28;20040;-79
2021/05/14 01:15:11;;;;;;;1.17;1.00;;;12.20;80.10;;;;;;5045993;28;20044;-79
2021/05/14 01:17:37;;;;;;;1.63;1.10;;;12.20;80.20;;;;;;5077657;28;20570;-80
2021/05/14 01:20:04;;;;;;;1.75;1.17;;;12.20;80.20;;;;;;5063337;28;20044;-79
2021/05/14 01:22:30;;;;;;;0.85;0.85;;;12.20;80.20;;;;;;5080686;28;20032;-80
2021/05/14 01:24:56;;;;;;;2.50;1.00;;;12.20;80.20;;;;;;5066377;28;20051;-79
2021/05/14 01:27:22;;;;;;;1.73;1.15;;;12.20;80.10;;;;;;5081073;28;20485;-79
2021/05/14 01:29:49;;;;;;;1.00;0.80;;;12.20;80.20;;;;;;5099721;28;20050;-80
2021/05/14 01:32:15;;;;;;;1.75;1.20;;;12.20;80.20;;;;;;5079600;28;20048;-79
2021/05/14 01:34:41;;;;;;;1.02;0.82;;;12.20;80.30;;;;;;5086755;28;20055;-79
2021/05/14 01:37:07;;;;;;;1.50;1.10;;;12.20;80.40;;;;;;5049648;28;20040;-79
2021/05/14 01:39:34;;;;;;;1.35;1.10;;;12.20;80.40;;;;;;5079190;28;20033;-79
2021/05/14 01:42:00;;;;;;;1.38;1.20;;;12.10;80.50;;;;;;5101358;28;20043;-80
2021/05/14 01:44:26;;;;;;;1.35;1.00;;;12.10;80.60;;;;;;5063722;28;20044;-80
2021/05/14 01:46:51;;;;;;;1.42;0.98;;;12.00;80.60;;;;;;5081756;28;20044;-80
2021/05/14 01:49:17;;;;;;;0.70;0.70;;;12.10;80.80;;;;;;5080983;28;20040;-80
2021/05/14 01:51:43;;;;;;;1.38;0.98;;;12.00;80.80;;;;;;5098905;28;20039;-80
2021/05/14 01:54:08;;;;;;;1.65;1.25;;;12.00;80.80;;;;;;5101632;28;20052;-80
2021/05/14 01:56:34;;;;;;;2.35;1.73;;;12.00;80.80;;;;;;5079568;28;20064;-80
2021/05/14 01:59:00;;;;;;;1.17;1.02;;;12.10;80.90;;;;;;5080861;28;20041;-79
2021/05/14 02:01:26;;;;;;;1.42;1.05;;;12.00;80.90;;;;;;5087296;28;20044;-80
2021/05/14 02:03:52;;;;;;;1.40;1.10;;;12.00;81.00;;;;;;5104524;28;20043;-80
2021/05/14 02:06:18;;;;;;;2.00;1.33;;;11.90;81.00;;;;;;5081429;28;20504;-80
2021/05/14 02:08:45;;;;;;;1.52;1.20;;;12.00;81.10;;;;;;5085358;28;20036;-79
2021/05/14 02:11:11;;;;;;;1.15;1.00;;;12.00;81.10;;;;;;5103512;28;20044;-79
2021/05/14 02:13:39;;;;;;;2.30;1.40;;;11.90;81.00;;;;;;5103477;28;20038;-79
2021/05/14 02:16:06;;;;;;;1.58;1.25;;;11.90;81.10;;;;;;5085548;28;20036;-80
2021/05/14 02:18:33;;;;;;;0.90;0.80;;;11.90;81.10;;;;;;5101335;28;20103;-79
2021/05/14 02:21:00;;;;;;;1.42;1.10;;;11.90;81.20;;;;;;5067360;28;20075;-79
2021/05/14 02:23:26;;;;;;;1.73;1.30;;;11.80;81.20;;;;;;5103081;28;20040;-79
2021/05/14 02:25:52;;;;;;;1.55;1.20;;;11.80;81.20;;;;;;5100844;28;20042;-79
2021/05/14 02:28:17;;;;;;;1.50;1.20;;;11.80;81.30;;;;;;5101853;28;20060;-79
2021/05/14 02:30:44;;;;;;;1.48;1.08;;;11.80;81.40;;;;;;5064809;28;20055;-79
2021/05/14 02:33:10;;;;;;;1.48;1.02;;;11.70;81.30;;;;;;5050213;28;20043;-79
2021/05/14 02:35:36;;;;;;;1.38;1.10;;;11.70;81.30;;;;;;5100477;28;20104;-80
2021/05/14 02:38:03;;;;;;;1.75;1.02;;;11.80;81.40;;;;;;5080923;28;20520;-79
2021/05/14 02:40:29;;;;;;;1.08;0.93;;;11.70;81.30;;;;;;5082191;28;20358;-79
2021/05/14 02:42:56;;;;;;;1.80;0.98;;;11.80;81.40;;;;;;5065471;28;20512;-80
2021/05/14 02:45:23;;;;;;;1.13;1.00;;;11.80;81.30;;;;;;5074354;28;20039;-79
2021/05/14 02:47:48;;;;;;;1.23;0.80;;;11.80;81.30;;;;;;5092661;28;20040;-79
2021/05/14 02:50:15;;;;;;;0.95;0.90;;;11.80;81.20;;;;;;5094821;28;20055;-79
2021/05/14 02:52:41;;;;;;;2.00;1.20;;;11.80;81.20;;;;;;5087878;28;20044;-79
2021/05/14 02:55:08;;;;;;;1.60;1.25;;;11.80;81.20;;;;;;5090832;28;20040;-80
2021/05/14 02:57:34;;;;;;;1.02;0.90;;;11.80;81.20;;;;;;5090727;28;20062;-80
2021/05/14 03:00:01;;;;;;;2.22;1.17;;;11.80;81.20;;;;;;5055450;28;20036;-80
2021/05/14 03:02:26;;;;;;;1.70;1.20;;;11.80;81.20;;;;;;5091023;28;20044;-79
2021/05/14 03:04:52;;;;;;;1.77;1.20;;;11.70;81.20;;;;;;5071683;28;20546;-79
2021/05/14 03:07:20;;;;;;;2.15;1.20;;;11.70;81.30;;;;;;5069356;28;20042;-79
2021/05/14 03:09:45;;;;;;;1.58;1.15;;;11.70;81.30;;;;;;5085432;28;20044;-79
2021/05/14 03:12:11;;;;;;;1.73;1.20;;;11.70;81.40;;;;;;5082060;28;20051;-79
2021/05/14 03:14:37;;;;;;;1.58;0.98;;;11.70;81.40;;;;;;5104395;28;20402;-79
2021/05/14 03:17:03;;;;;;;1.73;1.17;;;11.70;81.50;;;;;;5102745;28;20143;-79
2021/05/14 03:19:28;;;;;;;1.65;1.02;;;11.60;81.40;;;;;;5062885;28;20097;-79
2021/05/14 03:21:54;;;;;;;1.60;1.10;;;11.60;81.50;;;;;;5083507;28;20113;-79
2021/05/14 03:24:20;;;;;;;1.42;1.13;;;11.60;81.60;;;;;;5102313;28;20537;-80
2021/05/14 03:26:48;;;;;;;1.52;1.20;;;11.60;81.60;;;;;;5079332;28;20041;-79
2021/05/14 03:29:14;;;;;;;1.25;1.08;;;11.60;81.70;;;;;;5063409;28;20040;-79
2021/05/14 03:31:40;;;;;;;1.77;1.10;;;11.60;81.70;;;;;;5062867;28;20096;-79
2021/05/14 03:34:06;;;;;;;1.85;1.30;;;11.50;81.80;;;;;;5097163;28;20044;-79
2021/05/14 03:36:33;;;;;;;2.20;1.40;;;11.50;81.90;;;;;;5097087;28;20453;-80
2021/05/14 03:38:59;;;;;;;2.28;1.50;;;11.50;81.90;;;;;;5095682;28;20439;-79
2021/05/14 03:41:33;;;;;;;3.03;1.42;;;11.50;82.00;;;;;;5078009;28;20040;-79
2021/05/14 03:44:00;;;;;;;2.22;1.50;;;11.50;82.00;;;;;;5077669;28;20048;-79
2021/05/14 03:46:27;;;;;;;3.17;1.80;;;11.50;82.00;;;;;;5044708;28;20044;-79
2021/05/14 03:48:53;;;;;;;2.88;1.70;;;11.40;82.00;;;;;;5080002;28;20154;-79
2021/05/14 03:51:19;;;;;;;3.47;1.98;;;11.50;82.00;;;;;;5078330;28;20066;-79
2021/05/14 03:53:45;;;;;;;1.98;1.20;;;11.50;82.00;;;;;;5045513;28;20051;-79
2021/05/14 03:56:11;;;;;;;2.17;1.60;;;11.50;82.00;;;;;;5076575;28;20032;-79
2021/05/14 03:58:36;;;;;;;1.98;1.33;;;11.40;81.90;;;;;;5078077;28;20036;-79
2021/05/14 04:01:03;;;;;;;2.45;1.58;;;11.50;82.00;;;;;;5080415;28;20040;-79
2021/05/14 04:03:28;;;;;;;2.42;1.67;;;11.50;82.00;;;;;;5097032;28;20123;-79
2021/05/14 04:05:54;;;;;;;2.10;1.50;;;11.50;82.00;;;;;;5097814;28;20492;-80
2021/05/14 04:08:20;;;;;;;2.25;1.40;;;11.50;82.00;;;;;;5076226;28;20043;-81
2021/05/14 04:10:51;;;;;;;2.90;1.50;;;11.60;82.10;;;;;;5076578;28;20032;-80
2021/05/14 04:15:57;;;;;;;2.95;1.77;;;11.50;82.00;;;;;;5078036;28;20056;-80
2021/05/14 04:18:23;;;;;;;3.10;1.73;;;11.60;82.00;;;;;;5076213;28;20094;-80
2021/05/14 04:20:49;;;;;;;2.92;1.80;;;11.50;82.00;;;;;;5095144;28;20040;-79
2021/05/14 04:23:16;;;;;;;2.80;1.65;;;11.60;82.00;;;;;;5074344;28;20060;-80
2021/05/14 04:25:41;;;;;;;3.10;1.90;;;11.60;82.00;;;;;;5094744;28;20036;-80
2021/05/14 04:28:07;;;;;;;2.15;1.48;;;11.70;82.10;;;;;;5076987;28;20039;-79
2021/05/14 04:30:33;;;;;;;2.08;1.40;;;11.60;82.00;;;;;;5073921;28;20403;-79
2021/05/14 04:32:59;;;;;;;2.22;1.48;;;11.60;82.00;;;;;;5078516;28;20082;-79
2021/05/14 04:35:26;;;;;;;1.70;1.30;;;11.60;82.10;;;;;;5077109;28;20111;-79
2021/05/14 04:37:53;;;;;;;2.75;1.45;;;11.70;82.20;;;;;;5046870;28;20100;-79
2021/05/14 04:40:19;;;;;;;2.63;1.60;;;11.70;82.10;;;;;;5097451;28;20043;-79
2021/05/14 04:42:45;;;;;;;2.42;1.55;;;11.70;82.10;;;;;;5100781;28;20066;-80
2021/05/14 04:45:15;;;;;;;2.90;1.58;;;11.60;82.70;;;;;;5049602;28;20036;-79
2021/05/14 04:47:40;;;;;;;2.90;1.70;;;11.70;82.20;;;;;;5080685;28;20428;-80
2021/05/14 04:50:06;;;;;;;3.13;1.70;;;11.70;82.20;;;;;;5102581;28;20066;-80
2021/05/14 04:52:32;;;;;;;2.15;1.38;;;11.70;82.20;;;;;;5105794;28;20040;-80
2021/05/14 04:54:58;;;;;;;2.40;1.50;;;11.70;82.20;;;;;;5102691;28;20042;-80
2021/05/14 04:57:24;;;;;;;3.60;2.05;;;11.70;82.20;;;;;;5097451;28;20051;-80
2021/05/14 04:59:49;;;;;;;3.42;1.95;;;11.70;82.20;;;;;;5098457;28;20040;-80
2021/05/14 05:02:15;;;;;;;3.40;1.85;;;11.70;82.30;;;;;;5064875;28;20051;-79
2021/05/14 05:04:42;;;;;;;3.45;1.77;;;11.70;82.40;;;;;;5080703;28;20383;-79
2021/05/14 05:07:08;;;;;;;2.72;1.67;;;11.70;82.40;;;;;;5102439;28;20028;-80
2021/05/14 05:09:35;;;;;;;2.97;1.80;;;11.70;82.40;;;;;;5087581;28;20044;-80
2021/05/14 05:12:00;;;;;;;3.58;1.92;;;11.80;82.40;;;;;;5092799;28;20071;-79
2021/05/14 05:14:27;;;;;;;4.28;2.28;;;11.80;82.40;;;;;;5089376;28;20493;-80
2021/05/14 05:16:54;;;;;;;3.88;2.28;;;11.80;82.40;;;;;;5071189;28;20040;-79
2021/05/14 05:19:20;;;;;;;2.97;1.80;;;11.80;82.40;;;;;;5111022;28;20048;-79
2021/05/14 05:21:45;;;;;;;3.10;1.75;;;11.80;82.40;;;;;;5108578;28;20040;-80
2021/05/14 05:24:11;;;;;;;3.00;1.77;;;11.90;82.50;;;;;;5109376;28;20105;-79
2021/05/14 05:26:37;;;;;;;4.55;2.03;;;11.80;82.40;;;;;;5109604;28;20043;-80
2021/05/14 05:29:03;;;;;;;2.08;1.50;;;11.80;83.10;;;;;;5087441;28;20061;-82
2021/05/14 05:31:29;;;;;;;4.03;2.10;;;11.90;82.50;;;;;;5093816;28;20044;-81
2021/05/14 05:33:55;;;;;;;3.58;2.08;;;11.80;82.50;;;;;;5111245;28;20043;-81
2021/05/14 05:36:21;;;;;;;2.88;1.83;;;11.80;82.60;;;;;;5074963;28;20119;-81
2021/05/14 05:38:48;;;;;;;4.13;2.08;;;11.90;82.80;;;;;;5089184;28;20056;-81
2021/05/14 05:41:16;;;;;;;2.22;1.42;;;11.90;82.70;;;;;;5110284;28;20044;-81
2021/05/14 05:43:41;;;;;;;2.60;1.70;;;11.90;82.60;;;;;;5078067;28;20040;-81
2021/05/14 05:46:07;;;;;;;2.45;1.42;;;11.90;82.60;;;;;;5091247;28;20012;-81
2021/05/14 05:48:33;;;;;;;2.40;1.55;;;12.00;82.60;;;;;;5074668;28;20044;-81
2021/05/14 05:50:58;;;;;;;1.83;1.27;;;12.00;82.60;;;;;;5089860;28;20040;-80
2021/05/14 05:53:24;;;;;;;2.78;1.50;;;12.10;82.60;;;;;;5086430;28;20379;-81
2021/05/14 05:55:50;;;;;;;2.78;1.52;;;12.10;82.50;;;;;;5095929;28;20410;-81
2021/05/14 05:58:17;;;;;;;2.10;1.33;;;12.10;82.50;;;;;;5097561;28;20040;-79
2021/05/14 06:00:43;;;;;;;2.13;1.30;;;12.10;82.50;;;;;;5097761;28;20048;-81
2021/05/14 06:03:11;;;;;;;2.13;1.45;;;12.00;82.50;;;;;;5063301;28;20045;-80
2021/05/14 06:05:37;;;;;;;2.45;1.65;;;12.00;82.60;;;;;;5075365;28;20044;-80
2021/05/14 06:08:03;;;;;;;2.13;1.50;;;12.00;82.60;;;;;;5039179;28;20483;-80
2021/05/14 06:10:29;;;;;;;2.00;1.33;;;11.90;82.70;;;;;;5040332;28;20048;-80
2021/05/14 06:12:55;;;;;;;1.40;1.00;;;11.90;82.70;;;;;;5076167;28;20039;-81
2021/05/14 06:15:22;;;;;;;3.17;1.80;;;12.00;82.80;;;;;;5077191;28;20139;-81
2021/05/14 06:17:49;;;;;;;1.73;1.30;;;12.00;82.80;;;;;;5058272;28;20045;-80
2021/05/14 06:20:17;;;;;;;1.55;1.20;;;12.00;82.80;;;;;;5073969;28;20048;-80
2021/05/14 06:22:43;;;;;;;1.80;1.30;;;12.00;82.80;;;;;;5074975;28;20130;-80
2021/05/14 06:25:09;;;;;;;1.73;1.30;;;12.00;82.80;;;;;;5073137;28;20512;-80
2021/05/14 06:27:35;;;;;;;1.88;1.20;;;12.00;82.90;;;;;;5074278;28;20466;-80
2021/05/14 06:30:02;;;;;;;2.00;1.33;;;12.10;82.90;;;;;;5089144;28;20055;-80
2021/05/14 06:32:28;;;;;;;1.90;1.10;;;12.10;82.90;;;;;;5091726;28;20112;-78
2021/05/14 06:34:54;;;;;;;2.00;1.00;;;12.00;82.80;;;;;;5058679;28;20134;-81
2021/05/14 06:37:20;;;;;;;2.72;1.70;;;11.90;82.70;;;;;;5082269;28;20093;-81
2021/05/14 06:39:47;;;;;;;3.25;1.90;;;12.10;82.90;;;;;;5105348;28;20083;-80
2021/05/14 06:42:16;;;;;;;3.70;2.20;;;12.00;82.70;;;;;;5085613;28;20052;-82
2021/05/14 06:44:48;;;;;;;2.53;1.70;;;12.00;82.70;;;;;;5077327;28;20044;-81
2021/05/14 06:47:13;;;;;;;2.55;1.65;;;12.00;82.80;;;;;;5095069;28;20060;-78
2021/05/14 06:49:53;;;;;;;2.58;1.60;;;12.00;82.90;;;;;;5093245;28;20063;-79
2021/05/14 06:52:19;;;;;;;2.17;1.40;;;12.00;82.90;;;;;;5717932;22;20037;-82
2021/05/14 06:54:44;;;;;;;3.75;1.70;;;12.00;82.90;;;;;;5168748;23;20052;-81
2021/05/14 08:40:41;;;;;;;1.80;1.35;;;13.40;80.20;;;;;;5079355;22;19977;-78
2021/05/14 08:43:08;;;;;;;1.70;1.23;;;13.40;80.30;;;;;;5053649;28;20049;-78
2021/05/14 08:45:34;;;;;;;2.97;1.90;;;13.30;80.50;;;;;;5150767;23;20075;-78
2021/05/14 08:48:01;;;;;;;5.97;2.97;;;13.30;80.60;;;;;;5020257;28;20056;-76
2021/05/14 08:50:28;;;;;;;3.08;2.08;;;13.50;80.50;;;;;;5031608;28;20084;-77
2021/05/14 08:52:54;;;;;;;4.60;2.53;;;13.50;80.30;;;;;;5048303;28;20085;-78
2021/05/14 08:55:24;;;;;;;5.95;3.00;;;13.70;80.40;;;;;;5049409;28;20026;-76
2021/05/14 08:57:51;;;;;;;3.80;2.15;;;13.70;80.10;;;;;;5050090;28;20068;-75
2021/05/14 09:00:18;;;;;;;4.13;2.30;;;13.80;80.00;;;;;;5037799;28;20049;-76
2021/05/14 09:02:44;;;;;;;3.63;2.38;;;13.70;80.00;;;;;;5053210;28;20014;-75
2021/05/14 09:05:26;;;;;;;3.38;2.00;;;13.80;79.90;;;;;;5036548;28;20041;-76
2021/05/14 09:07:55;;;;;;;3.20;2.05;;;13.90;79.90;;;;;;5035946;28;20018;-76
2021/05/14 09:10:21;;;;;;;3.00;2.15;;;14.10;79.60;;;;;;5048067;28;20036;-76
2021/05/14 09:12:48;;;;;;;2.92;1.85;;;14.20;79.40;;;;;;5037671;28;20121;-75
2021/05/14 09:15:35;;;;;;;3.50;2.13;;;14.20;79.20;;;;;;5043358;28;20049;-75
2021/05/14 09:18:09;;;;;;;3.22;1.80;;;14.40;79.40;;;;;;5045718;28;20045;-75
2021/05/14 09:20:37;;;;;;;3.38;2.03;;;14.40;79.00;;;;;;5024796;28;20100;-76
2021/05/14 09:23:25;;;;;;;2.65;1.77;;;14.40;79.00;;;;;;5032672;28;20082;-75
2021/05/14 09:26:07;;;;;;;3.90;2.55;;;14.30;79.30;;;;;;5031513;28;20494;-74
2021/05/14 09:28:43;;;;;;;3.75;2.30;;;14.40;79.30;;;;;;5049294;28;20041;-75
2021/05/14 09:31:20;;;;;;;2.92;2.00;;;14.30;79.10;;;;;;5050642;28;20045;-76
2021/05/14 09:33:48;;;;;;;3.08;1.90;;;14.40;80.00;;;;;;5012156;28;20463;-78
2021/05/14 09:36:19;;;;;;;2.83;1.88;;;14.50;79.40;;;;;;5025389;28;20050;-74
2021/05/14 09:38:46;;;;;;;2.35;1.85;;;14.50;79.10;;;;;;5021888;28;20037;-75
2021/05/14 09:41:35;;;;;;;4.25;2.30;;;14.60;78.80;;;;;;5021413;28;20038;-76
2021/05/14 09:44:04;;;;;;;4.28;2.60;;;14.60;78.70;;;;;;5022369;28;20069;-76
2021/05/14 09:46:38;;;;;;;2.97;2.10;;;14.50;78.80;;;;;;5038747;28;20112;-75
2021/05/14 09:49:07;;;;;;;3.28;2.13;;;14.50;79.10;;;;;;5022160;28;20427;-75
2021/05/14 09:51:34;;;;;;;3.97;2.30;;;14.50;79.30;;;;;;5024986;28;20049;-74
2021/05/14 09:54:19;;;;;;;3.25;2.15;;;14.60;79.00;;;;;;5028320;28;20100;-75
2021/05/14 09:57:03;;;;;;;6.57;3.40;;;14.60;79.00;;;;;;5031230;28;20069;-76
2021/05/14 09:59:31;;;;;;;5.13;3.10;;;14.50;79.10;;;;;;5029036;28;20379;-74
2021/05/14 10:01:57;;;;;;;5.10;3.10;;;14.50;79.00;;;;;;5024994;28;20098;-76
2021/05/14 10:04:24;;;;;;;5.32;3.00;;;14.50;79.10;;;;;;5046253;28;20097;-75
2021/05/14 10:06:50;;;;;;;4.90;3.05;;;14.50;79.00;;;;;;5048647;28;20044;-76
2021/05/14 10:09:19;;;;;;;5.65;3.55;;;14.60;78.90;;;;;;5040297;28;20096;-75
2021/05/14 10:11:45;;;;;;;5.22;3.00;;;14.90;78.60;;;;;;5043722;28;20052;-75
2021/05/14 10:14:11;;;;;;;3.80;2.50;;;15.10;77.90;;;;;;5026930;28;20045;-75
2021/05/14 10:16:38;;;;;;;4.80;2.97;;;15.30;77.60;;;;;;5009440;28;20087;-74
2021/05/14 10:19:05;;;;;;;4.85;3.00;;;15.30;77.00;;;;;;5029224;28;20093;-75
2021/05/14 10:21:33;;;;;;;5.38;3.45;;;15.40;76.80;;;;;;5046598;28;20488;-75
2021/05/14 10:23:59;;;;;;;4.05;2.42;;;15.40;76.90;;;;;;5030355;28;20026;-74
2021/05/14 10:26:36;;;;;;;5.47;3.28;;;15.50;76.80;;;;;;5047357;28;20064;-75
2021/05/14 10:29:11;;;;;;;4.07;2.92;;;15.60;76.50;;;;;;5029602;28;20049;-75
2021/05/14 10:31:43;;;;;;;3.13;2.30;;;15.70;76.50;;;;;;5016669;28;20044;-75
2021/05/14 10:34:14;;;;;;;4.30;2.67;;;15.80;76.30;;;;;;5044120;28;20033;-76
2021/05/14 10:36:42;;;;;;;3.45;2.45;;;15.80;76.00;;;;;;5047840;28;20045;-75
2021/05/14 10:39:17;;;;;;;3.17;2.15;;;15.80;76.00;;;;;;5028922;28;20044;-74
2021/05/14 10:41:53;;;;;;;4.32;2.40;;;15.90;76.20;;;;;;5044681;28;20430;-74
2021/05/14 10:44:46;;;;;;;5.07;3.20;;;16.00;75.70;;;;;;5041785;28;20416;-74
2021/05/14 10:47:43;;;;;;;4.65;3.20;;;16.20;75.50;;;;;;5035751;28;20037;-74
2021/05/14 10:50:29;;;;;;;4.35;2.72;;;16.20;75.00;;;;;;5037525;28;20042;-74
2021/05/14 10:53:34;;;;;;;4.43;2.70;;;16.10;75.20;;;;;;5036375;28;20042;-74
2021/05/14 10:56:30;;;;;;;4.03;2.30;;;16.20;74.70;;;;;;5039348;28;20033;-74
2021/05/14 10:59:08;;;;;;;4.00;2.50;;;16.30;74.60;;;;;;5039391;28;20045;-74
2021/05/14 11:01:38;;;;;;;3.05;2.20;;;16.30;74.50;;;;;;5043811;28;20041;-74
2021/05/14 11:04:41;;;;;;;4.50;2.60;;;16.30;74.80;;;;;;5022332;28;20029;-74
2021/05/14 11:07:06;;;;;;;2.65;2.03;;;16.40;74.60;;;;;;5043432;28;20051;-76
2021/05/14 11:09:32;;;;;;;2.25;1.73;;;16.50;74.40;;;;;;5024396;28;20053;-74
2021/05/14 11:12:05;;;;;;;2.92;2.03;;;16.60;74.10;;;;;;5048159;28;20037;-75
2021/05/14 11:14:46;;;;;;;3.78;2.53;;;16.70;74.20;;;;;;5044103;28;20037;-75
2021/05/14 11:17:15;;;;;;;3.28;2.05;;;16.70;73.70;;;;;;5021017;28;20041;-74
2021/05/14 11:19:50;;;;;;;2.63;1.95;;;16.70;73.90;;;;;;5043339;28;20041;-74
2021/05/14 11:22:23;;;;;;;3.25;2.00;;;16.80;73.90;;;;;;5009006;28;20041;-74
2021/05/14 11:24:52;;;;;;;3.08;1.83;;;16.80;73.40;;;;;;5026245;28;20029;-74
2021/05/14 11:27:21;;;;;;;2.45;1.70;;;16.80;73.60;;;;;;5047578;28;20033;-74
2021/05/14 11:29:55;;;;;;;2.63;1.80;;;16.80;73.60;;;;;;5044504;28;20044;-74
2021/05/14 11:32:27;;;;;;;2.55;1.70;;;16.90;73.50;;;;;;5038001;28;20652;-73
2021/05/14 11:35:03;;;;;;;2.83;1.50;;;17.10;73.30;;;;;;5021145;28;20042;-73
2021/05/14 11:37:33;;;;;;;1.52;1.40;;;17.30;72.90;;;;;;5024200;28;20052;-75
2021/05/14 11:40:06;;;;;;;2.83;1.98;;;17.50;72.30;;;;;;5027937;28;20437;-75
2021/05/14 11:42:32;;;;;;;2.25;1.58;;;17.50;71.80;;;;;;5015411;28;20029;-74
2021/05/14 11:45:00;;;;;;;1.83;1.40;;;17.30;72.20;;;;;;5044809;28;20040;-75
2021/05/14 11:47:26;;;;;;;2.00;1.42;;;17.20;72.50;;;;;;5046903;28;20037;-73
2021/05/14 11:49:52;;;;;;;2.78;1.42;;;17.10;72.80;;;;;;5041760;28;20029;-74
2021/05/14 11:52:39;;;;;;;1.65;1.30;;;16.90;72.90;;;;;;5034659;28;20379;-77
2021/05/14 11:55:12;;;;;;;0.90;0.85;;;16.80;73.10;;;;;;5032362;28;20045;-75
2021/05/14 11:57:38;;;;;;;1.33;0.90;;;16.70;73.40;;;;;;5026407;28;20549;-75
2021/05/14 12:00:08;;;;;;;1.67;1.20;;;16.70;73.40;;;;;;5022895;28;20099;-74
2021/05/14 12:02:38;;;;;;;1.15;1.05;;;16.90;73.40;;;;;;5018637;28;20034;-74
2021/05/14 12:05:06;;;;;;;1.27;1.08;;;17.00;72.60;;;;;;5041822;28;20079;-76
2021/05/14 12:07:32;;;;;;;2.22;1.30;;;17.10;72.50;;;;;;5049169;28;20057;-74
2021/05/14 12:10:01;;;;;;;1.10;1.00;;;17.20;72.30;;;;;;5038566;28;20053;-76
2021/05/14 12:12:27;;;;;;;0.93;0.90;;;17.20;72.10;;;;;;4998752;28;20033;-76
2021/05/14 12:15:14;;;;;;;1.02;0.93;;;17.20;72.00;;;;;;5019859;28;20056;-77
2021/05/14 12:17:41;;;;;;;0.90;0.80;;;17.20;71.80;;;;;;5021426;28;20042;-76
2021/05/14 12:20:26;;;;;;;0.98;0.85;;;17.30;72.00;;;;;;5045890;28;20064;-75
2021/05/14 12:22:55;;;;;;;1.60;1.25;;;17.30;71.70;;;;;;5046904;28;20063;-74
2021/05/14 12:25:21;;;;;;;1.38;1.20;;;17.20;71.50;;;;;;5046389;28;20116;-76
2021/05/14 12:27:48;;;;;;;1.60;1.20;;;17.10;71.60;;;;;;5020929;28;20073;-76
2021/05/14 12:30:16;;;;;;;2.55;1.15;;;17.10;71.70;;;;;;5033203;28;20037;-77
2021/05/14 12:32:52;;;;;;;1.50;1.00;;;17.10;71.50;;;;;;5034695;28;20038;-76
2021/05/14 12:35:21;;;;;;;1.48;1.00;;;17.00;71.40;;;;;;5041080;28;20518;-76
2021/05/14 12:37:58;;;;;;;1.20;1.10;;;17.00;71.50;;;;;;5023130;28;20068;-74
2021/05/14 12:40:29;;;;;;;1.75;1.25;;;17.00;71.30;;;;;;5042982;28;20041;-76
2021/05/14 12:43:04;;;;;;;0.90;0.85;;;16.90;71.10;;;;;;5034038;28;20030;-76
2021/05/14 12:45:36;;;;;;;0.75;0.70;;;16.80;71.30;;;;;;5035215;28;20033;-76
2021/05/14 12:48:03;;;;;;;0.93;0.70;;;16.80;71.30;;;;;;5040709;28;20046;-77
2021/05/14 12:50:29;;;;;;;0.75;0.70;;;16.80;71.30;;;;;;5023565;28;20054;-75
2021/05/14 12:52:55;;;;;;;0.85;0.80;;;16.70;71.30;;;;;;5028171;28;20052;-77
2021/05/14 12:55:21;;;;;;;0.95;0.90;;;16.60;71.50;;;;;;5042409;28;20065;-77
2021/05/14 12:57:57;;;;;;;1.10;1.00;;;16.60;71.50;;;;;;5017688;28;20133;-77
2021/05/14 13:00:26;;;;;;;2.17;0.90;;;16.70;71.30;;;;;;5032322;28;20063;-76
2021/05/14 13:03:03;;;;;;;0.60;0.60;;;16.70;70.80;;;;;;5036037;28;20037;-76
2021/05/14 13:05:41;;;;;;;0.93;0.60;;;16.70;70.60;;;;;;5032169;28;20541;-76
2021/05/14 13:08:10;;;;;;;0.57;0.57;;;16.80;70.50;;;;;;5034689;28;20033;-76
2021/05/14 13:10:38;;;;;;;1.00;0.90;;;17.00;70.30;;;;;;5014107;28;20037;-76
2021/05/14 13:13:04;;;;;;;1.13;1.00;;;17.10;69.80;;;;;;5016156;28;20060;-76
2021/05/14 13:15:30;;;;;;;2.15;1.23;;;17.00;69.50;;;;;;5031737;28;20052;-75
2021/05/14 13:17:56;;;;;;;0.90;0.70;;;17.00;69.50;;;;;;5033137;28;20041;-74
2021/05/14 13:20:22;;;;;;;0.82;0.82;;;16.90;69.50;;;;;;5015372;28;20113;-75
2021/05/14 13:22:48;;;;;;;1.27;1.10;;;17.00;69.50;;;;;;4998462;28;20118;-75
2021/05/14 13:25:13;;;;;;;1.00;0.90;;;17.00;69.20;;;;;;5017492;28;20037;-76
2021/05/14 13:27:40;;;;;;;0.90;0.90;;;17.10;68.80;;;;;;4996552;28;20060;-76
2021/05/14 13:30:08;;;;;;;1.00;0.90;;;17.10;68.60;;;;;;4997732;28;20034;-76
2021/05/14 13:32:34;;;;;;;0.90;0.73;;;17.00;68.60;;;;;;4997421;28;20132;-74
2021/05/14 13:35:02;;;;;;;1.10;1.00;;;16.90;68.70;;;;;;5031494;28;20029;-76
2021/05/14 13:37:28;;;;;;;2.60;0.90;;;16.90;68.80;;;;;;5015267;28;20045;-77
2021/05/14 13:39:54;;;;;;;0.70;0.70;;;16.90;68.70;;;;;;5038837;28;20080;-78
2021/05/14 13:42:19;;;;;;;1.50;0.95;;;16.90;68.50;;;;;;5024528;28;20033;-77
2021/05/14 13:44:45;;;;;;;0.95;0.75;;;16.80;68.20;;;;;;5019036;28;20060;-77
2021/05/14 13:47:11;;;;;;;0.60;0.60;;;16.80;68.30;;;;;;5014803;28;20476;-78
2021/05/14 13:49:36;;;;;;;0.82;0.70;;;16.70;68.40;;;;;;5003278;28;20046;-77
2021/05/14 13:52:03;;;;;;;0.47;0.43;;;16.60;68.60;;;;;;5040608;28;20479;-77
2021/05/14 13:54:29;;;;;;;0.43;0.43;;;16.60;68.60;;;;;;5049455;28;20041;-78
2021/05/14 13:56:55;;;;;;;0.45;0.45;;;16.60;68.50;;;;;;5025957;28;20038;-75
2021/05/14 13:59:21;;;;;;;0.75;0.70;;;16.60;68.40;;;;;;5025251;28;20056;-76
2021/05/14 14:01:47;;;;;;;0.40;0.40;;;16.60;68.10;;;;;;5031767;28;20038;-76
2021/05/14 14:04:13;;;;;;;0.90;0.82;;;16.60;68.00;;;;;;5026546;28;20045;-75
2021/05/14 14:06:38;;;;;;;0.70;0.70;;;16.60;67.60;;;;;;5025344;28;20048;-76
2021/05/14 14:09:04;;;;;;;0.50;0.50;;;16.70;67.50;;;;;;5047591;28;20064;-75
2021/05/14 14:11:30;;;;;;;0.60;0.60;;;16.70;67.30;;;;;;5025109;28;20048;-75
2021/05/14 14:13:56;;;;;;;0.80;0.80;;;16.80;67.30;;;;;;5026464;28;20045;-75
2021/05/14 14:16:22;;;;;;;0.55;0.55;;;16.90;66.90;;;;;;5021477;28;20112;-74
2021/05/14 14:18:48;;;;;;;0.70;0.70;;;16.90;66.60;;;;;;5026290;28;20034;-74
2021/05/14 14:21:13;;;;;;;0.60;0.60;;;16.90;66.40;;;;;;5021281;28;20119;-75
2021/05/14 14:23:39;;;;;;;0.65;0.55;;;16.90;66.30;;;;;;5020220;28;20089;-75
2021/05/14 14:26:05;;;;;;;0.55;0.55;;;17.00;66.20;;;;;;5038381;28;20055;-73
2021/05/14 14:28:31;;;;;;;1.30;0.90;;;17.00;66.00;;;;;;5036034;28;20053;-75
2021/05/14 14:30:56;;;;;;;1.30;1.00;;;17.10;65.70;;;;;;5018269;28;20483;-74
2021/05/14 14:33:22;;;;;;;0.80;0.80;;;17.10;65.70;;;;;;5035424;28;20037;-74
2021/05/14 14:35:49;;;;;;;0.90;0.80;;;17.30;65.40;;;;;;5017437;28;20044;-74
2021/05/14 14:38:15;;;;;;;0.75;0.75;;;17.30;65.00;;;;;;5021729;28;20103;-76
2021/05/14 14:40:45;;;;;;;0.50;0.50;;;17.30;64.80;;;;;;5020244;28;20072;-75